sensor_id;sensor_type;location;lat;lon;timestamp;P1;durP1;ratioP1;P2;durP2;ratioP2
3541;SDS011;1785;47.388;8.538;2023-10-09T00:02:22;18.80;;;10.27;;
3541;SDS011;1785;47.388;8.538;2023-10-09T00:04:48;16.20;;;8.67;;
3541;SDS011;1785;47.388;8.538;2023-10-09T00:07:17;13.73;;;9.47;;
3541;SDS011;1785;47.388;8.538;2023-10-09T00:09:45;13.90;;;8.67;;
3541;SDS011;1785;47.388;8.538;2023-10-09T00:12:16;16.23;;;9.17;;
3541;SDS011;1785;47.388;8.538;2023-10-09T00:14:47;18.33;;;11.10;;
3541;SDS011;1785;47.388;8.538;2023-10-09T00:17:15;16.10;;;9.10;;
3541;SDS011;1785;47.388;8.538;2023-10-09T00:19:45;12.90;;;8.20;;
3541;SDS011;1785;47.388;8.538;2023-10-09T00:22:13;12.47;;;9.97;;
3541;SDS011;1785;47.388;8.538;2023-10-09T00:24:51;16.37;;;8.50;;
3541;SDS011;1785;47.388;8.538;2023-10-09T00:27:36;16.20;;;9.53;;
3541;SDS011;1785;47.388;8.538;2023-10-09T00:30:06;15.53;;;11.23;;
3541;SDS011;1785;47.388;8.538;2023-10-09T00:32:34;17.33;;;8.00;;
3541;SDS011;1785;47.388;8.538;2023-10-09T00:35:02;17.50;;;10.23;;
3541;SDS011;1785;47.388;8.538;2023-10-09T00:37:59;14.80;;;8.40;;
3541;SDS011;1785;47.388;8.538;2023-10-09T00:40:32;12.57;;;9.10;;
3541;SDS011;1785;47.388;8.538;2023-10-09T00:43:01;16.20;;;9.47;;
3541;SDS011;1785;47.388;8.538;2023-10-09T00:45:31;14.00;;;8.63;;
3541;SDS011;1785;47.388;8.538;2023-10-09T00:47:58;13.97;;;8.47;;
3541;SDS011;1785;47.388;8.538;2023-10-09T00:50:27;14.00;;;8.90;;
3541;SDS011;1785;47.388;8.538;2023-10-09T00:53:00;19.13;;;10.63;;
3541;SDS011;1785;47.388;8.538;2023-10-09T00:55:29;17.60;;;9.70;;
3541;SDS011;1785;47.388;8.538;2023-10-09T00:58:04;16.17;;;9.00;;
3541;SDS011;1785;47.388;8.538;2023-10-09T01:00:37;13.47;;;10.20;;
3541;SDS011;1785;47.388;8.538;2023-10-09T01:03:11;16.93;;;9.60;;
3541;SDS011;1785;47.388;8.538;2023-10-09T01:05:47;16.00;;;9.50;;
3541;SDS011;1785;47.388;8.538;2023-10-09T01:08:17;16.73;;;8.70;;
3541;SDS011;1785;47.388;8.538;2023-10-09T01:10:50;16.87;;;9.17;;
3541;SDS011;1785;47.388;8.538;2023-10-09T01:13:21;14.47;;;9.00;;
3541;SDS011;1785;47.388;8.538;2023-10-09T01:15:53;15.10;;;10.53;;
3541;SDS011;1785;47.388;8.538;2023-10-09T01:18:23;13.23;;;9.50;;
3541;SDS011;1785;47.388;8.538;2023-10-09T01:20:57;16.23;;;9.87;;
3541;SDS011;1785;47.388;8.538;2023-10-09T01:23:23;11.20;;;8.00;;
3541;SDS011;1785;47.388;8.538;2023-10-09T01:25:49;14.97;;;9.30;;
3541;SDS011;1785;47.388;8.538;2023-10-09T01:28:16;13.77;;;8.90;;
3541;SDS011;1785;47.388;8.538;2023-10-09T01:30:43;18.37;;;9.43;;
3541;SDS011;1785;47.388;8.538;2023-10-09T01:33:10;17.03;;;8.63;;
3541;SDS011;1785;47.388;8.538;2023-10-09T01:35:53;12.00;;;8.60;;
3541;SDS011;1785;47.388;8.538;2023-10-09T01:38:24;13.43;;;8.10;;
3541;SDS011;1785;47.388;8.538;2023-10-09T01:41:05;20.83;;;9.87;;
3541;SDS011;1785;47.388;8.538;2023-10-09T01:43:33;14.70;;;8.57;;
3541;SDS011;1785;47.388;8.538;2023-10-09T01:46:00;14.80;;;9.83;;
3541;SDS011;1785;47.388;8.538;2023-10-09T01:48:26;10.90;;;8.60;;
3541;SDS011;1785;47.388;8.538;2023-10-09T01:50:52;17.93;;;9.00;;
3541;SDS011;1785;47.388;8.538;2023-10-09T01:53:19;18.83;;;10.40;;
3541;SDS011;1785;47.388;8.538;2023-10-09T01:55:48;15.97;;;9.20;;
3541;SDS011;1785;47.388;8.538;2023-10-09T01:58:15;10.30;;;8.20;;
3541;SDS011;1785;47.388;8.538;2023-10-09T02:00:49;16.40;;;10.33;;
3541;SDS011;1785;47.388;8.538;2023-10-09T02:03:19;16.67;;;8.40;;
3541;SDS011;1785;47.388;8.538;2023-10-09T02:05:51;13.20;;;8.63;;
3541;SDS011;1785;47.388;8.538;2023-10-09T02:08:18;13.63;;;8.20;;
3541;SDS011;1785;47.388;8.538;2023-10-09T02:10:47;17.70;;;9.40;;
3541;SDS011;1785;47.388;8.538;2023-10-09T02:13:13;12.73;;;8.40;;
3541;SDS011;1785;47.388;8.538;2023-10-09T02:15:42;14.33;;;8.00;;
3541;SDS011;1785;47.388;8.538;2023-10-09T02:18:17;14.63;;;8.80;;
3541;SDS011;1785;47.388;8.538;2023-10-09T02:20:51;14.47;;;8.13;;
3541;SDS011;1785;47.388;8.538;2023-10-09T02:23:21;16.73;;;9.73;;
3541;SDS011;1785;47.388;8.538;2023-10-09T02:25:56;21.33;;;10.20;;
3541;SDS011;1785;47.388;8.538;2023-10-09T02:28:22;16.07;;;8.67;;
3541;SDS011;1785;47.388;8.538;2023-10-09T02:30:48;14.37;;;9.03;;
3541;SDS011;1785;47.388;8.538;2023-10-09T02:33:16;14.47;;;8.27;;
3541;SDS011;1785;47.388;8.538;2023-10-09T02:35:52;9.53;;;8.20;;
3541;SDS011;1785;47.388;8.538;2023-10-09T02:38:19;15.67;;;9.73;;
3541;SDS011;1785;47.388;8.538;2023-10-09T02:40:49;9.77;;;8.63;;
3541;SDS011;1785;47.388;8.538;2023-10-09T02:43:46;15.63;;;8.97;;
3541;SDS011;1785;47.388;8.538;2023-10-09T02:46:12;13.30;;;9.23;;
3541;SDS011;1785;47.388;8.538;2023-10-09T02:48:43;17.30;;;9.23;;
3541;SDS011;1785;47.388;8.538;2023-10-09T02:51:10;12.40;;;9.07;;
3541;SDS011;1785;47.388;8.538;2023-10-09T02:53:46;15.50;;;8.67;;
3541;SDS011;1785;47.388;8.538;2023-10-09T02:56:14;13.75;;;8.07;;
3541;SDS011;1785;47.388;8.538;2023-10-09T02:58:43;16.30;;;8.90;;
3541;SDS011;1785;47.388;8.538;2023-10-09T03:01:10;15.60;;;8.30;;
3541;SDS011;1785;47.388;8.538;2023-10-09T03:03:38;12.63;;;8.67;;
3541;SDS011;1785;47.388;8.538;2023-10-09T03:06:06;15.43;;;8.83;;
3541;SDS011;1785;47.388;8.538;2023-10-09T03:08:36;21.23;;;9.35;;
3541;SDS011;1785;47.388;8.538;2023-10-09T03:11:02;15.87;;;9.47;;
3541;SDS011;1785;47.388;8.538;2023-10-09T03:13:31;13.30;;;8.07;;
3541;SDS011;1785;47.388;8.538;2023-10-09T03:15:58;12.50;;;9.60;;
3541;SDS011;1785;47.388;8.538;2023-10-09T03:18:24;14.70;;;8.80;;
3541;SDS011;1785;47.388;8.538;2023-10-09T03:20:50;13.13;;;8.77;;
3541;SDS011;1785;47.388;8.538;2023-10-09T03:23:16;15.13;;;9.20;;
3541;SDS011;1785;47.388;8.538;2023-10-09T03:25:43;14.70;;;8.90;;
3541;SDS011;1785;47.388;8.538;2023-10-09T03:28:10;14.50;;;8.47;;
3541;SDS011;1785;47.388;8.538;2023-10-09T03:30:37;20.57;;;7.43;;
3541;SDS011;1785;47.388;8.538;2023-10-09T03:33:05;18.03;;;8.80;;
3541;SDS011;1785;47.388;8.538;2023-10-09T03:35:32;16.90;;;9.03;;
3541;SDS011;1785;47.388;8.538;2023-10-09T03:37:59;16.70;;;9.40;;
3541;SDS011;1785;47.388;8.538;2023-10-09T03:40:31;14.70;;;8.30;;
3541;SDS011;1785;47.388;8.538;2023-10-09T03:43:00;16.90;;;8.63;;
3541;SDS011;1785;47.388;8.538;2023-10-09T03:45:26;16.03;;;7.07;;
3541;SDS011;1785;47.388;8.538;2023-10-09T03:47:55;18.77;;;8.27;;
3541;SDS011;1785;47.388;8.538;2023-10-09T03:50:26;11.30;;;7.80;;
3541;SDS011;1785;47.388;8.538;2023-10-09T03:53:01;12.10;;;7.93;;
3541;SDS011;1785;47.388;8.538;2023-10-09T03:55:28;14.40;;;8.40;;
3541;SDS011;1785;47.388;8.538;2023-10-09T03:57:55;14.63;;;7.33;;
3541;SDS011;1785;47.388;8.538;2023-10-09T04:00:22;10.27;;;7.30;;
3541;SDS011;1785;47.388;8.538;2023-10-09T04:02:52;13.60;;;7.38;;
3541;SDS011;1785;47.388;8.538;2023-10-09T04:05:18;14.93;;;7.03;;
3541;SDS011;1785;47.388;8.538;2023-10-09T04:07:45;18.00;;;8.13;;
3541;SDS011;1785;47.388;8.538;2023-10-09T04:10:14;11.20;;;7.73;;
3541;SDS011;1785;47.388;8.538;2023-10-09T04:12:57;16.20;;;8.97;;
3541;SDS011;1785;47.388;8.538;2023-10-09T04:15:25;15.53;;;8.60;;
3541;SDS011;1785;47.388;8.538;2023-10-09T04:17:55;11.80;;;7.90;;
3541;SDS011;1785;47.388;8.538;2023-10-09T04:20:22;14.50;;;7.40;;
3541;SDS011;1785;47.388;8.538;2023-10-09T04:23:05;16.00;;;8.53;;
3541;SDS011;1785;47.388;8.538;2023-10-09T04:25:32;13.17;;;7.80;;
3541;SDS011;1785;47.388;8.538;2023-10-09T04:28:07;11.30;;;7.53;;
3541;SDS011;1785;47.388;8.538;2023-10-09T04:30:34;17.90;;;7.90;;
3541;SDS011;1785;47.388;8.538;2023-10-09T04:33:05;12.40;;;7.27;;
3541;SDS011;1785;47.388;8.538;2023-10-09T04:35:52;12.00;;;9.03;;
3541;SDS011;1785;47.388;8.538;2023-10-09T04:38:40;17.67;;;8.70;;
3541;SDS011;1785;47.388;8.538;2023-10-09T04:41:21;14.70;;;8.20;;
3541;SDS011;1785;47.388;8.538;2023-10-09T04:43:53;11.00;;;7.93;;
3541;SDS011;1785;47.388;8.538;2023-10-09T04:46:28;10.40;;;7.77;;
3541;SDS011;1785;47.388;8.538;2023-10-09T04:49:08;17.23;;;7.97;;
3541;SDS011;1785;47.388;8.538;2023-10-09T04:51:51;14.23;;;7.87;;
3541;SDS011;1785;47.388;8.538;2023-10-09T04:54:26;15.20;;;8.33;;
3541;SDS011;1785;47.388;8.538;2023-10-09T04:57:04;12.47;;;7.47;;
3541;SDS011;1785;47.388;8.538;2023-10-09T04:59:43;14.47;;;8.73;;
3541;SDS011;1785;47.388;8.538;2023-10-09T05:02:13;22.73;;;9.67;;
3541;SDS011;1785;47.388;8.538;2023-10-09T05:04:44;18.40;;;9.73;;
3541;SDS011;1785;47.388;8.538;2023-10-09T05:07:13;14.10;;;9.13;;
3541;SDS011;1785;47.388;8.538;2023-10-09T05:10:10;20.27;;;9.37;;
3541;SDS011;1785;47.388;8.538;2023-10-09T05:12:41;15.87;;;7.83;;
3541;SDS011;1785;47.388;8.538;2023-10-09T05:15:12;14.57;;;8.53;;
3541;SDS011;1785;47.388;8.538;2023-10-09T05:17:39;14.03;;;8.83;;
3541;SDS011;1785;47.388;8.538;2023-10-09T05:20:11;15.03;;;8.80;;
3541;SDS011;1785;47.388;8.538;2023-10-09T05:22:55;14.97;;;8.00;;
3541;SDS011;1785;47.388;8.538;2023-10-09T05:25:44;12.23;;;7.53;;
3541;SDS011;1785;47.388;8.538;2023-10-09T05:28:21;19.13;;;8.60;;
3541;SDS011;1785;47.388;8.538;2023-10-09T05:31:13;18.80;;;9.33;;
3541;SDS011;1785;47.388;8.538;2023-10-09T05:34:01;13.77;;;8.50;;
3541;SDS011;1785;47.388;8.538;2023-10-09T05:36:27;13.70;;;7.47;;
3541;SDS011;1785;47.388;8.538;2023-10-09T05:38:56;17.73;;;9.03;;
3541;SDS011;1785;47.388;8.538;2023-10-09T05:41:24;16.33;;;8.47;;
3541;SDS011;1785;47.388;8.538;2023-10-09T05:44:09;18.17;;;8.93;;
3541;SDS011;1785;47.388;8.538;2023-10-09T05:46:52;13.17;;;8.77;;
3541;SDS011;1785;47.388;8.538;2023-10-09T05:49:47;11.53;;;7.50;;
3541;SDS011;1785;47.388;8.538;2023-10-09T05:52:21;13.40;;;8.47;;
3541;SDS011;1785;47.388;8.538;2023-10-09T05:54:58;17.37;;;9.23;;
3541;SDS011;1785;47.388;8.538;2023-10-09T05:57:42;14.93;;;7.63;;
3541;SDS011;1785;47.388;8.538;2023-10-09T06:00:26;22.87;;;8.93;;
3541;SDS011;1785;47.388;8.538;2023-10-09T06:03:10;12.63;;;8.10;;
3541;SDS011;1785;47.388;8.538;2023-10-09T06:05:49;12.57;;;8.63;;
3541;SDS011;1785;47.388;8.538;2023-10-09T06:08:27;17.47;;;8.50;;
3541;SDS011;1785;47.388;8.538;2023-10-09T06:11:23;18.80;;;9.07;;
3541;SDS011;1785;47.388;8.538;2023-10-09T06:14:04;15.03;;;9.03;;
3541;SDS011;1785;47.388;8.538;2023-10-09T06:16:38;18.67;;;9.20;;
3541;SDS011;1785;47.388;8.538;2023-10-09T06:19:11;19.60;;;9.20;;
3541;SDS011;1785;47.388;8.538;2023-10-09T06:21:51;15.23;;;9.30;;
3541;SDS011;1785;47.388;8.538;2023-10-09T06:25:04;19.83;;;8.40;;
3541;SDS011;1785;47.388;8.538;2023-10-09T06:27:34;14.53;;;7.27;;
3541;SDS011;1785;47.388;8.538;2023-10-09T06:30:22;15.93;;;8.60;;
3541;SDS011;1785;47.388;8.538;2023-10-09T06:32:52;20.10;;;9.10;;
3541;SDS011;1785;47.388;8.538;2023-10-09T06:35:44;20.83;;;9.03;;
3541;SDS011;1785;47.388;8.538;2023-10-09T06:38:18;17.63;;;9.15;;
3541;SDS011;1785;47.388;8.538;2023-10-09T06:40:48;17.03;;;7.83;;
3541;SDS011;1785;47.388;8.538;2023-10-09T06:43:42;23.37;;;9.50;;
3541;SDS011;1785;47.388;8.538;2023-10-09T06:46:14;14.17;;;8.53;;
3541;SDS011;1785;47.388;8.538;2023-10-09T06:49:00;20.90;;;8.53;;
3541;SDS011;1785;47.388;8.538;2023-10-09T06:51:46;20.13;;;9.10;;
3541;SDS011;1785;47.388;8.538;2023-10-09T06:54:12;19.07;;;8.47;;
3541;SDS011;1785;47.388;8.538;2023-10-09T06:56:40;15.03;;;8.43;;
3541;SDS011;1785;47.388;8.538;2023-10-09T06:59:24;24.80;;;10.50;;
3541;SDS011;1785;47.388;8.538;2023-10-09T07:02:06;18.97;;;7.80;;
3541;SDS011;1785;47.388;8.538;2023-10-09T07:04:52;15.47;;;7.50;;
3541;SDS011;1785;47.388;8.538;2023-10-09T07:07:20;13.40;;;7.90;;
3541;SDS011;1785;47.388;8.538;2023-10-09T07:09:49;20.13;;;8.00;;
3541;SDS011;1785;47.388;8.538;2023-10-09T07:12:34;15.50;;;8.43;;
3541;SDS011;1785;47.388;8.538;2023-10-09T07:15:08;20.43;;;10.03;;
3541;SDS011;1785;47.388;8.538;2023-10-09T07:17:52;27.70;;;9.03;;
3541;SDS011;1785;47.388;8.538;2023-10-09T07:20:21;20.20;;;9.43;;
3541;SDS011;1785;47.388;8.538;2023-10-09T07:23:02;20.07;;;10.27;;
3541;SDS011;1785;47.388;8.538;2023-10-09T07:25:41;21.10;;;9.67;;
3541;SDS011;1785;47.388;8.538;2023-10-09T07:28:19;19.17;;;8.23;;
3541;SDS011;1785;47.388;8.538;2023-10-09T07:31:02;16.23;;;8.90;;
3541;SDS011;1785;47.388;8.538;2023-10-09T07:33:28;21.10;;;8.70;;
3541;SDS011;1785;47.388;8.538;2023-10-09T07:36:17;14.43;;;8.90;;
3541;SDS011;1785;47.388;8.538;2023-10-09T07:38:54;20.97;;;8.70;;
3541;SDS011;1785;47.388;8.538;2023-10-09T07:41:21;16.33;;;8.60;;
3541;SDS011;1785;47.388;8.538;2023-10-09T07:44:05;18.60;;;8.77;;
3541;SDS011;1785;47.388;8.538;2023-10-09T07:46:44;19.73;;;8.80;;
3541;SDS011;1785;47.388;8.538;2023-10-09T07:49:17;21.85;;;8.50;;
3541;SDS011;1785;47.388;8.538;2023-10-09T07:51:50;28.20;;;8.83;;
3541;SDS011;1785;47.388;8.538;2023-10-09T07:54:17;17.80;;;8.60;;
3541;SDS011;1785;47.388;8.538;2023-10-09T07:56:57;17.60;;;8.30;;
3541;SDS011;1785;47.388;8.538;2023-10-09T07:59:34;15.50;;;8.57;;
3541;SDS011;1785;47.388;8.538;2023-10-09T08:02:06;27.40;;;9.50;;
3541;SDS011;1785;47.388;8.538;2023-10-09T08:04:38;18.37;;;9.00;;
3541;SDS011;1785;47.388;8.538;2023-10-09T08:07:14;24.73;;;8.90;;
3541;SDS011;1785;47.388;8.538;2023-10-09T08:09:44;15.03;;;7.67;;
3541;SDS011;1785;47.388;8.538;2023-10-09T08:12:13;18.60;;;9.13;;
3541;SDS011;1785;47.388;8.538;2023-10-09T08:15:00;23.43;;;8.73;;
3541;SDS011;1785;47.388;8.538;2023-10-09T08:17:45;19.97;;;8.73;;
3541;SDS011;1785;47.388;8.538;2023-10-09T08:20:16;16.13;;;7.40;;
3541;SDS011;1785;47.388;8.538;2023-10-09T08:22:43;22.50;;;7.93;;
3541;SDS011;1785;47.388;8.538;2023-10-09T08:25:15;21.50;;;7.57;;
3541;SDS011;1785;47.388;8.538;2023-10-09T08:27:53;11.93;;;6.63;;
3541;SDS011;1785;47.388;8.538;2023-10-09T08:30:21;22.37;;;8.20;;
3541;SDS011;1785;47.388;8.538;2023-10-09T08:33:05;13.90;;;6.60;;
3541;SDS011;1785;47.388;8.538;2023-10-09T08:35:52;10.97;;;6.40;;
3541;SDS011;1785;47.388;8.538;2023-10-09T08:38:21;10.10;;;7.67;;
3541;SDS011;1785;47.388;8.538;2023-10-09T08:40:48;21.47;;;7.77;;
3541;SDS011;1785;47.388;8.538;2023-10-09T08:43:16;16.30;;;7.30;;
3541;SDS011;1785;47.388;8.538;2023-10-09T08:45:45;10.30;;;7.00;;
3541;SDS011;1785;47.388;8.538;2023-10-09T08:48:12;14.83;;;6.67;;
3541;SDS011;1785;47.388;8.538;2023-10-09T08:50:40;17.50;;;7.33;;
3541;SDS011;1785;47.388;8.538;2023-10-09T08:53:07;24.80;;;8.57;;
3541;SDS011;1785;47.388;8.538;2023-10-09T08:55:35;12.57;;;7.13;;
3541;SDS011;1785;47.388;8.538;2023-10-09T08:58:03;19.23;;;7.28;;
3541;SDS011;1785;47.388;8.538;2023-10-09T09:00:35;17.93;;;6.53;;
3541;SDS011;1785;47.388;8.538;2023-10-09T09:03:04;17.73;;;7.20;;
3541;SDS011;1785;47.388;8.538;2023-10-09T09:05:31;13.23;;;6.80;;
3541;SDS011;1785;47.388;8.538;2023-10-09T09:08:00;18.73;;;7.80;;
3541;SDS011;1785;47.388;8.538;2023-10-09T09:10:28;16.47;;;7.17;;
3541;SDS011;1785;47.388;8.538;2023-10-09T09:13:00;15.23;;;6.53;;
3541;SDS011;1785;47.388;8.538;2023-10-09T09:15:29;15.13;;;6.87;;
3541;SDS011;1785;47.388;8.538;2023-10-09T09:18:03;16.20;;;6.93;;
3541;SDS011;1785;47.388;8.538;2023-10-09T09:20:32;14.37;;;7.20;;
3541;SDS011;1785;47.388;8.538;2023-10-09T09:23:02;16.37;;;7.50;;
3541;SDS011;1785;47.388;8.538;2023-10-09T09:25:39;21.63;;;7.43;;
3541;SDS011;1785;47.388;8.538;2023-10-09T09:28:09;14.33;;;6.03;;
3541;SDS011;1785;47.388;8.538;2023-10-09T09:30:38;17.40;;;6.20;;
3541;SDS011;1785;47.388;8.538;2023-10-09T09:33:18;12.83;;;5.90;;
3541;SDS011;1785;47.388;8.538;2023-10-09T09:35:55;16.60;;;7.03;;
3541;SDS011;1785;47.388;8.538;2023-10-09T09:38:23;16.00;;;6.80;;
3541;SDS011;1785;47.388;8.538;2023-10-09T09:40:52;17.83;;;6.00;;
3541;SDS011;1785;47.388;8.538;2023-10-09T09:43:22;17.60;;;5.93;;
3541;SDS011;1785;47.388;8.538;2023-10-09T09:45:50;15.10;;;6.33;;
3541;SDS011;1785;47.388;8.538;2023-10-09T09:48:21;17.73;;;6.80;;
3541;SDS011;1785;47.388;8.538;2023-10-09T09:50:49;15.25;;;7.00;;
3541;SDS011;1785;47.388;8.538;2023-10-09T09:53:19;17.33;;;6.80;;
3541;SDS011;1785;47.388;8.538;2023-10-09T09:55:49;19.97;;;5.70;;
3541;SDS011;1785;47.388;8.538;2023-10-09T09:58:21;16.40;;;6.10;;
3541;SDS011;1785;47.388;8.538;2023-10-09T10:00:48;13.00;;;5.40;;
3541;SDS011;1785;47.388;8.538;2023-10-09T10:03:19;15.70;;;6.50;;
3541;SDS011;1785;47.388;8.538;2023-10-09T10:05:49;17.30;;;5.63;;
3541;SDS011;1785;47.388;8.538;2023-10-09T10:08:17;15.53;;;5.57;;
3541;SDS011;1785;47.388;8.538;2023-10-09T10:10:45;14.70;;;5.87;;
3541;SDS011;1785;47.388;8.538;2023-10-09T10:13:17;21.63;;;5.87;;
3541;SDS011;1785;47.388;8.538;2023-10-09T10:16:06;20.00;;;5.07;;
3541;SDS011;1785;47.388;8.538;2023-10-09T10:18:57;12.50;;;5.30;;
3541;SDS011;1785;47.388;8.538;2023-10-09T10:21:46;13.90;;;4.93;;
3541;SDS011;1785;47.388;8.538;2023-10-09T10:27:17;15.23;;;4.63;;
3541;SDS011;1785;47.388;8.538;2023-10-09T10:29:59;11.33;;;4.80;;
3541;SDS011;1785;47.388;8.538;2023-10-09T10:33:01;15.43;;;5.20;;
3541;SDS011;1785;47.388;8.538;2023-10-09T10:35:40;19.00;;;5.73;;
3541;SDS011;1785;47.388;8.538;2023-10-09T10:38:30;14.97;;;6.40;;
3541;SDS011;1785;47.388;8.538;2023-10-09T10:41:08;19.73;;;5.67;;
3541;SDS011;1785;47.388;8.538;2023-10-09T10:43:37;15.63;;;4.50;;
3541;SDS011;1785;47.388;8.538;2023-10-09T10:46:13;14.17;;;5.00;;
3541;SDS011;1785;47.388;8.538;2023-10-09T10:48:41;13.23;;;5.73;;
3541;SDS011;1785;47.388;8.538;2023-10-09T10:51:11;16.67;;;5.67;;
3541;SDS011;1785;47.388;8.538;2023-10-09T10:53:43;12.37;;;5.50;;
3541;SDS011;1785;47.388;8.538;2023-10-09T10:56:18;12.67;;;5.30;;
3541;SDS011;1785;47.388;8.538;2023-10-09T10:58:51;13.63;;;5.43;;
3541;SDS011;1785;47.388;8.538;2023-10-09T11:01:36;15.40;;;5.43;;
3541;SDS011;1785;47.388;8.538;2023-10-09T11:04:19;24.63;;;5.10;;
3541;SDS011;1785;47.388;8.538;2023-10-09T11:07:03;18.02;;;5.53;;
3541;SDS011;1785;47.388;8.538;2023-10-09T11:09:44;14.17;;;5.27;;
3541;SDS011;1785;47.388;8.538;2023-10-09T11:12:25;9.60;;;4.80;;
3541;SDS011;1785;47.388;8.538;2023-10-09T11:15:03;12.53;;;4.83;;
3541;SDS011;1785;47.388;8.538;2023-10-09T11:17:31;9.90;;;5.43;;
3541;SDS011;1785;47.388;8.538;2023-10-09T11:19:58;16.93;;;5.07;;
3541;SDS011;1785;47.388;8.538;2023-10-09T11:22:45;12.03;;;6.07;;
3541;SDS011;1785;47.388;8.538;2023-10-09T11:25:30;13.90;;;5.50;;
3541;SDS011;1785;47.388;8.538;2023-10-09T11:27:58;14.60;;;5.90;;
3541;SDS011;1785;47.388;8.538;2023-10-09T11:30:40;11.27;;;6.33;;
3541;SDS011;1785;47.388;8.538;2023-10-09T11:33:11;17.07;;;4.80;;
3541;SDS011;1785;47.388;8.538;2023-10-09T11:35:40;19.60;;;5.20;;
3541;SDS011;1785;47.388;8.538;2023-10-09T11:38:09;15.23;;;5.30;;
3541;SDS011;1785;47.388;8.538;2023-10-09T11:40:46;14.60;;;5.17;;
3541;SDS011;1785;47.388;8.538;2023-10-09T11:43:44;21.13;;;7.77;;
3541;SDS011;1785;47.388;8.538;2023-10-09T11:46:16;18.07;;;5.63;;
3541;SDS011;1785;47.388;8.538;2023-10-09T11:49:02;16.87;;;5.10;;
3541;SDS011;1785;47.388;8.538;2023-10-09T11:51:50;14.80;;;4.93;;
3541;SDS011;1785;47.388;8.538;2023-10-09T11:54:49;15.00;;;4.90;;
3541;SDS011;1785;47.388;8.538;2023-10-09T11:57:14;17.23;;;5.30;;
3541;SDS011;1785;47.388;8.538;2023-10-09T11:59:42;15.27;;;5.17;;
3541;SDS011;1785;47.388;8.538;2023-10-09T12:02:08;11.20;;;5.17;;
3541;SDS011;1785;47.388;8.538;2023-10-09T12:04:37;12.67;;;5.93;;
3541;SDS011;1785;47.388;8.538;2023-10-09T12:07:07;17.60;;;5.50;;
3541;SDS011;1785;47.388;8.538;2023-10-09T12:09:35;15.35;;;6.78;;
3541;SDS011;1785;47.388;8.538;2023-10-09T12:12:02;15.47;;;5.33;;
3541;SDS011;1785;47.388;8.538;2023-10-09T12:14:28;13.87;;;4.30;;
3541;SDS011;1785;47.388;8.538;2023-10-09T12:17:03;17.13;;;5.27;;
3541;SDS011;1785;47.388;8.538;2023-10-09T12:19:31;18.20;;;6.03;;
3541;SDS011;1785;47.388;8.538;2023-10-09T12:21:58;15.37;;;5.40;;
3541;SDS011;1785;47.388;8.538;2023-10-09T12:24:26;20.67;;;6.53;;
3541;SDS011;1785;47.388;8.538;2023-10-09T12:26:54;17.30;;;5.70;;
3541;SDS011;1785;47.388;8.538;2023-10-09T12:29:20;17.67;;;7.40;;
3541;SDS011;1785;47.388;8.538;2023-10-09T12:31:46;12.80;;;5.20;;
3541;SDS011;1785;47.388;8.538;2023-10-09T12:34:12;12.00;;;5.30;;
3541;SDS011;1785;47.388;8.538;2023-10-09T12:36:41;21.77;;;5.60;;
3541;SDS011;1785;47.388;8.538;2023-10-09T12:39:08;18.20;;;4.60;;
3541;SDS011;1785;47.388;8.538;2023-10-09T12:41:43;15.50;;;5.33;;
3541;SDS011;1785;47.388;8.538;2023-10-09T12:44:09;21.13;;;5.77;;
3541;SDS011;1785;47.388;8.538;2023-10-09T12:46:39;20.17;;;6.90;;
3541;SDS011;1785;47.388;8.538;2023-10-09T12:49:05;21.13;;;5.80;;
3541;SDS011;1785;47.388;8.538;2023-10-09T12:51:31;10.80;;;6.23;;
3541;SDS011;1785;47.388;8.538;2023-10-09T12:53:57;13.07;;;6.97;;
3541;SDS011;1785;47.388;8.538;2023-10-09T12:56:26;21.47;;;6.80;;
3541;SDS011;1785;47.388;8.538;2023-10-09T12:58:58;14.80;;;6.13;;
3541;SDS011;1785;47.388;8.538;2023-10-09T13:01:26;14.37;;;5.80;;
3541;SDS011;1785;47.388;8.538;2023-10-09T13:03:57;14.33;;;5.93;;
3541;SDS011;1785;47.388;8.538;2023-10-09T13:06:24;11.27;;;4.67;;
3541;SDS011;1785;47.388;8.538;2023-10-09T13:08:50;18.15;;;6.40;;
3541;SDS011;1785;47.388;8.538;2023-10-09T13:11:17;15.53;;;5.80;;
3541;SDS011;1785;47.388;8.538;2023-10-09T13:13:44;11.67;;;5.70;;
3541;SDS011;1785;47.388;8.538;2023-10-09T13:16:14;10.40;;;5.30;;
3541;SDS011;1785;47.388;8.538;2023-10-09T13:18:48;15.53;;;5.30;;
3541;SDS011;1785;47.388;8.538;2023-10-09T13:21:15;19.17;;;5.40;;
3541;SDS011;1785;47.388;8.538;2023-10-09T13:23:41;18.77;;;6.30;;
3541;SDS011;1785;47.388;8.538;2023-10-09T13:26:11;12.73;;;6.00;;
3541;SDS011;1785;47.388;8.538;2023-10-09T13:28:47;10.10;;;5.50;;
3541;SDS011;1785;47.388;8.538;2023-10-09T13:31:15;16.30;;;5.37;;
3541;SDS011;1785;47.388;8.538;2023-10-09T13:33:42;15.77;;;4.40;;
3541;SDS011;1785;47.388;8.538;2023-10-09T13:36:09;15.50;;;6.87;;
3541;SDS011;1785;47.388;8.538;2023-10-09T13:38:42;19.73;;;5.40;;
3541;SDS011;1785;47.388;8.538;2023-10-09T13:41:09;18.93;;;5.63;;
3541;SDS011;1785;47.388;8.538;2023-10-09T13:43:38;15.17;;;6.40;;
3541;SDS011;1785;47.388;8.538;2023-10-09T13:46:06;19.20;;;5.90;;
3541;SDS011;1785;47.388;8.538;2023-10-09T13:48:34;15.80;;;5.17;;
3541;SDS011;1785;47.388;8.538;2023-10-09T13:51:03;16.00;;;5.78;;
3541;SDS011;1785;47.388;8.538;2023-10-09T13:53:32;12.80;;;4.77;;
3541;SDS011;1785;47.388;8.538;2023-10-09T13:56:00;13.27;;;4.93;;
3541;SDS011;1785;47.388;8.538;2023-10-09T13:58:27;20.30;;;5.50;;
3541;SDS011;1785;47.388;8.538;2023-10-09T14:00:53;19.80;;;6.73;;
3541;SDS011;1785;47.388;8.538;2023-10-09T14:03:21;15.93;;;5.53;;
3541;SDS011;1785;47.388;8.538;2023-10-09T14:05:49;16.83;;;5.60;;
3541;SDS011;1785;47.388;8.538;2023-10-09T14:08:20;18.70;;;5.77;;
3541;SDS011;1785;47.388;8.538;2023-10-09T14:10:47;18.07;;;5.40;;
3541;SDS011;1785;47.388;8.538;2023-10-09T14:13:14;11.50;;;4.67;;
3541;SDS011;1785;47.388;8.538;2023-10-09T14:15:41;21.43;;;7.13;;
3541;SDS011;1785;47.388;8.538;2023-10-09T14:18:08;15.13;;;5.47;;
3541;SDS011;1785;47.388;8.538;2023-10-09T14:20:36;13.50;;;4.40;;
3541;SDS011;1785;47.388;8.538;2023-10-09T14:23:03;19.13;;;5.27;;
3541;SDS011;1785;47.388;8.538;2023-10-09T14:25:32;19.53;;;5.50;;
3541;SDS011;1785;47.388;8.538;2023-10-09T14:27:58;11.80;;;5.77;;
3541;SDS011;1785;47.388;8.538;2023-10-09T14:30:24;13.20;;;4.70;;
3541;SDS011;1785;47.388;8.538;2023-10-09T14:32:57;15.87;;;5.70;;
3541;SDS011;1785;47.388;8.538;2023-10-09T14:35:23;14.50;;;5.20;;
3541;SDS011;1785;47.388;8.538;2023-10-09T14:37:52;17.53;;;5.33;;
3541;SDS011;1785;47.388;8.538;2023-10-09T14:40:19;14.10;;;4.80;;
3541;SDS011;1785;47.388;8.538;2023-10-09T14:42:54;12.27;;;5.93;;
3541;SDS011;1785;47.388;8.538;2023-10-09T14:45:23;16.20;;;5.67;;
3541;SDS011;1785;47.388;8.538;2023-10-09T14:47:50;15.67;;;5.70;;
3541;SDS011;1785;47.388;8.538;2023-10-09T14:50:19;11.93;;;5.37;;
3541;SDS011;1785;47.388;8.538;2023-10-09T14:52:47;13.53;;;4.90;;
3541;SDS011;1785;47.388;8.538;2023-10-09T14:55:13;19.20;;;4.70;;
3541;SDS011;1785;47.388;8.538;2023-10-09T14:57:46;20.50;;;6.97;;
3541;SDS011;1785;47.388;8.538;2023-10-09T15:00:14;10.40;;;4.57;;
3541;SDS011;1785;47.388;8.538;2023-10-09T15:02:47;14.18;;;5.40;;
3541;SDS011;1785;47.388;8.538;2023-10-09T15:05:14;14.17;;;3.97;;
3541;SDS011;1785;47.388;8.538;2023-10-09T15:07:41;24.67;;;6.30;;
3541;SDS011;1785;47.388;8.538;2023-10-09T15:10:07;23.97;;;18.43;;
3541;SDS011;1785;47.388;8.538;2023-10-09T15:12:34;22.77;;;11.83;;
3541;SDS011;1785;47.388;8.538;2023-10-09T15:15:11;11.57;;;6.03;;
3541;SDS011;1785;47.388;8.538;2023-10-09T15:17:39;18.77;;;7.40;;
3541;SDS011;1785;47.388;8.538;2023-10-09T15:20:09;16.57;;;6.33;;
3541;SDS011;1785;47.388;8.538;2023-10-09T15:22:38;14.63;;;4.73;;
3541;SDS011;1785;47.388;8.538;2023-10-09T15:25:05;20.13;;;7.27;;
3541;SDS011;1785;47.388;8.538;2023-10-09T15:27:31;22.13;;;6.60;;
3541;SDS011;1785;47.388;8.538;2023-10-09T15:29:58;17.33;;;5.13;;
3541;SDS011;1785;47.388;8.538;2023-10-09T15:32:24;17.87;;;5.03;;
3541;SDS011;1785;47.388;8.538;2023-10-09T15:34:54;14.23;;;5.50;;
3541;SDS011;1785;47.388;8.538;2023-10-09T15:37:21;14.37;;;5.80;;